createdAt,value
2022-11-16T00:01:08.449Z,8.35
2022-11-16T00:04:12.207Z,8.35
2022-11-16T00:07:14.958Z,8.53
2022-11-16T00:10:17.817Z,8.61
2022-11-16T00:13:20.973Z,8.48
2022-11-16T00:16:23.668Z,8.73
2022-11-16T00:19:28.523Z,8.61
2022-11-16T00:22:31.279Z,8.63
2022-11-16T00:25:33.982Z,8.52
2022-11-16T00:28:36.779Z,8.67
2022-11-16T00:31:39.467Z,8.71
2022-11-16T00:34:42.200Z,8.47
2022-11-16T00:37:44.874Z,8.65
2022-11-16T00:40:50.267Z,8.74
2022-11-16T00:43:52.866Z,8.61
2022-11-16T00:46:55.585Z,8.66
2022-11-16T00:49:58.225Z,8.54
2022-11-16T00:53:01.139Z,8.56
2022-11-16T00:56:05.207Z,8.50
2022-11-16T00:59:13.371Z,8.53
2022-11-16T01:02:18.280Z,8.57
2022-11-16T01:05:22.631Z,8.62
2022-11-16T01:08:25.499Z,8.66
2022-11-16T01:11:47.800Z,8.61
2022-11-16T01:14:50.517Z,8.51
2022-11-16T01:17:55.204Z,8.48
2022-11-16T01:20:57.919Z,8.46
2022-11-16T01:24:00.899Z,8.63
2022-11-16T01:27:03.727Z,8.63
2022-11-16T01:30:12.774Z,8.60
2022-11-16T01:33:19.876Z,8.55
2022-11-16T01:36:22.877Z,8.75
2022-11-16T01:39:25.737Z,8.81
2022-11-16T01:42:33.656Z,8.69
2022-11-16T01:45:42.483Z,8.63
2022-11-16T01:48:48.806Z,8.73
2022-11-16T01:51:58.772Z,8.70
2022-11-16T01:55:04.117Z,8.71
2022-11-16T01:58:21.155Z,8.72
2022-11-16T02:01:29.057Z,8.57
2022-11-16T02:04:35.644Z,8.54
2022-11-16T02:08:06.887Z,8.49
2022-11-16T02:11:54.062Z,8.63
2022-11-16T02:15:25.705Z,8.65
2022-11-16T02:19:11.478Z,8.68
2022-11-16T02:22:39.510Z,8.58
2022-11-16T02:26:01.464Z,8.47
2022-11-16T02:29:25.989Z,8.44
2022-11-16T02:32:34.578Z,8.35
2022-11-16T02:35:44.398Z,8.43
2022-11-16T02:39:01.051Z,8.41
2022-11-16T02:42:08.399Z,8.48
2022-11-16T02:45:17.519Z,8.38
2022-11-16T02:48:30.275Z,8.45
2022-11-16T02:51:36.236Z,8.64
2022-11-16T02:54:39.357Z,8.61
2022-11-16T02:57:49.481Z,8.71
2022-11-16T03:01:06.579Z,8.77
2022-11-16T03:04:26.893Z,8.70
2022-11-16T03:07:35.085Z,8.56
2022-11-16T03:10:59.153Z,8.67
2022-11-16T03:14:13.652Z,8.56
2022-11-16T03:17:26.549Z,8.57
2022-11-16T03:20:34.081Z,8.55
2022-11-16T03:23:37.352Z,8.70
2022-11-16T03:27:00.745Z,8.66
2022-11-16T03:30:14.841Z,8.55
2022-11-16T03:33:32.704Z,8.46
2022-11-16T03:36:39.037Z,8.50
2022-11-16T03:39:42.962Z,8.47
2022-11-16T03:42:49.690Z,8.55
2022-11-16T03:45:53.386Z,8.58
2022-11-16T03:48:58.798Z,8.47
2022-11-16T03:52:06.105Z,8.43
2022-11-16T03:55:09.783Z,8.51
2022-11-16T03:58:12.587Z,8.51
2022-11-16T04:01:15.579Z,8.71
2022-11-16T04:04:37.911Z,8.71
2022-11-16T04:07:59.380Z,8.81
2022-11-16T04:11:21.044Z,8.70
2022-11-16T04:14:44.005Z,8.65
2022-11-16T04:18:08.434Z,8.54
2022-11-16T04:21:38.370Z,8.54
2022-11-16T04:24:44.412Z,8.54
2022-11-16T04:28:06.233Z,8.60
2022-11-16T04:31:27.351Z,8.62
2022-11-16T04:34:54.812Z,8.67
2022-11-16T04:37:59.379Z,8.65
2022-11-16T04:41:26.499Z,8.59
2022-11-16T04:44:49.293Z,8.68
2022-11-16T04:47:53.458Z,8.64
2022-11-16T04:51:00.354Z,8.68
2022-11-16T04:54:03.309Z,8.66
2022-11-16T04:57:06.000Z,8.63
2022-11-16T05:00:09.642Z,8.69
2022-11-16T05:03:14.615Z,8.68
2022-11-16T05:06:17.737Z,8.66
2022-11-16T05:09:21.276Z,8.63
2022-11-16T05:12:26.072Z,8.64
2022-11-16T05:15:32.709Z,8.62
2022-11-16T05:18:36.828Z,8.69
2022-11-16T05:21:40.193Z,8.66
2022-11-16T05:24:44.809Z,8.57
2022-11-16T05:27:47.541Z,8.65
2022-11-16T05:30:50.307Z,8.74
2022-11-16T05:33:57.435Z,8.69
2022-11-16T05:37:00.458Z,8.77
2022-11-16T05:40:04.443Z,8.63
2022-11-16T05:43:16.884Z,8.72
2022-11-16T05:46:28.456Z,8.75
2022-11-16T05:49:34.039Z,8.73
2022-11-16T05:52:36.762Z,8.86
2022-11-16T05:55:43.465Z,8.77
2022-11-16T05:58:47.099Z,8.66
2022-11-16T06:01:51.176Z,8.67
2022-11-16T06:04:54.289Z,8.74
2022-11-16T06:07:57.340Z,8.76
2022-11-16T06:11:08.481Z,8.85
2022-11-16T06:14:12.542Z,8.79
2022-11-16T06:17:15.565Z,8.91
2022-11-16T06:20:19.332Z,8.97
2022-11-16T06:23:22.600Z,8.97
2022-11-16T06:26:29.415Z,9.01
2022-11-16T06:29:32.792Z,9.05
2022-11-16T06:32:36.000Z,9.26
2022-11-16T06:35:40.476Z,9.20
2022-11-16T06:38:46.668Z,9.06
2022-11-16T06:41:52.337Z,9.20
2022-11-16T06:44:56.620Z,9.24
2022-11-16T06:48:05.150Z,9.32
2022-11-16T06:51:09.953Z,9.31
2022-11-16T06:54:12.849Z,9.27
2022-11-16T06:57:15.856Z,9.32
2022-11-16T07:00:19.633Z,9.41
2022-11-16T07:03:23.774Z,9.44
2022-11-16T07:06:26.847Z,9.40
2022-11-16T07:09:31.430Z,9.47
2022-11-16T07:12:34.117Z,9.58
2022-11-16T07:15:37.880Z,9.55
2022-11-16T07:18:42.068Z,9.63
2022-11-16T07:21:45.023Z,9.48
2022-11-16T07:24:52.805Z,9.39
2022-11-16T07:27:58.740Z,9.74
2022-11-16T07:31:11.306Z,9.75
2022-11-16T07:34:14.351Z,9.85
2022-11-16T07:37:28.193Z,10.07
2022-11-16T07:40:30.928Z,10.12
2022-11-16T07:43:37.228Z,10.13
2022-11-16T07:46:48.133Z,10.20
2022-11-16T07:49:52.252Z,10.14
2022-11-16T07:52:57.211Z,9.86
2022-11-16T07:56:00.783Z,10.19
2022-11-16T07:59:06.657Z,9.80
2022-11-16T08:02:12.893Z,9.65
2022-11-16T08:05:17.161Z,9.87
2022-11-16T08:08:22.301Z,9.67
2022-11-16T08:11:25.765Z,9.69
2022-11-16T08:14:28.910Z,9.76
2022-11-16T08:17:32.445Z,9.79
2022-11-16T08:20:37.031Z,9.89
2022-11-16T08:23:40.970Z,10.14
2022-11-16T08:26:43.772Z,9.84
2022-11-16T08:29:49.226Z,9.75
2022-11-16T08:32:51.899Z,9.94
2022-11-16T08:35:55.436Z,10.05
2022-11-16T08:38:58.441Z,9.77
2022-11-16T08:42:01.225Z,9.82
2022-11-16T08:45:04.209Z,9.78
2022-11-16T08:48:07.194Z,9.84
2022-11-16T08:51:19.684Z,9.74
2022-11-16T08:54:30.041Z,9.67
2022-11-16T08:57:33.658Z,9.70
2022-11-16T09:00:40.842Z,9.72
2022-11-16T09:03:44.542Z,9.71
2022-11-16T09:06:47.505Z,9.79
2022-11-16T09:09:50.382Z,9.65
2022-11-16T09:12:53.172Z,9.57
2022-11-16T09:15:57.587Z,9.88
2022-11-16T09:19:01.897Z,10.04
2022-11-16T09:22:25.852Z,10.16
2022-11-16T09:25:28.715Z,10.31
2022-11-16T09:28:32.527Z,10.61
2022-11-16T09:31:38.361Z,10.58
2022-11-16T09:34:42.849Z,10.56
2022-11-16T09:37:46.013Z,10.30
2022-11-16T09:40:51.542Z,10.58
2022-11-16T09:44:06.607Z,11.02
2022-11-16T09:47:23.767Z,11.07
2022-11-16T09:50:53.008Z,11.60
2022-11-16T09:53:58.298Z,11.99
2022-11-16T09:57:12.170Z,11.67
2022-11-16T10:00:23.660Z,11.48
2022-11-16T10:03:38.957Z,11.81
2022-11-16T10:06:53.888Z,11.42
2022-11-16T10:09:57.069Z,11.37
2022-11-16T10:13:20.677Z,11.38
2022-11-16T10:16:38.397Z,11.40
2022-11-16T10:19:47.504Z,11.51
2022-11-16T10:23:00.351Z,11.50
2022-11-16T10:26:16.018Z,11.50
2022-11-16T10:29:45.333Z,11.18
2022-11-16T10:33:10.864Z,11.08
2022-11-16T10:36:15.811Z,11.24
2022-11-16T10:39:20.619Z,10.86
2022-11-16T10:42:36.610Z,10.99
2022-11-16T10:45:43.692Z,11.13
2022-11-16T10:48:55.655Z,10.74
2022-11-16T10:51:58.555Z,10.68
2022-11-16T10:55:01.288Z,10.54
2022-11-16T10:58:05.765Z,10.47
2022-11-16T11:01:12.783Z,10.57
2022-11-16T11:04:22.196Z,10.49
2022-11-16T11:07:59.972Z,10.61
2022-11-16T11:11:25.340Z,10.60
2022-11-16T11:14:28.067Z,10.58
2022-11-16T11:17:32.576Z,10.62
2022-11-16T11:20:39.053Z,10.94
2022-11-16T11:23:49.364Z,11.15
2022-11-16T11:26:59.222Z,11.13
2022-11-16T11:30:02.395Z,10.79
2022-11-16T11:33:12.293Z,10.76
2022-11-16T11:36:38.564Z,10.76
2022-11-16T11:39:41.317Z,10.85
2022-11-16T11:43:01.242Z,10.89
2022-11-16T11:46:15.612Z,10.71
2022-11-16T11:49:33.291Z,10.53
2022-11-16T11:52:47.167Z,10.44
2022-11-16T11:55:59.922Z,10.40
2022-11-16T11:59:04.976Z,10.64
2022-11-16T12:02:28.512Z,10.73
2022-11-16T12:05:56.479Z,10.82
2022-11-16T12:09:16.317Z,10.88
2022-11-16T12:12:35.974Z,10.88
2022-11-16T12:16:16.978Z,11.10
2022-11-16T12:19:59.631Z,11.02
2022-11-16T12:23:14.712Z,11.27
2022-11-16T12:26:23.228Z,11.27
2022-11-16T12:29:37.342Z,11.30
2022-11-16T12:32:52.504Z,11.13
2022-11-16T12:36:00.917Z,11.18
2022-11-16T12:39:22.727Z,11.23
2022-11-16T12:42:33.360Z,11.35
2022-11-16T12:45:39.002Z,11.36
2022-11-16T12:49:04.092Z,11.39
2022-11-16T12:52:56.909Z,11.49
2022-11-16T12:56:33.925Z,11.56
2022-11-16T12:59:45.721Z,11.52
2022-11-16T13:03:09.488Z,11.54
2022-11-16T13:06:16.873Z,11.42
2022-11-16T13:09:30.901Z,11.25
2022-11-16T13:12:36.124Z,11.39
2022-11-16T13:15:41.227Z,11.47
2022-11-16T13:18:44.601Z,11.48
2022-11-16T13:22:17.353Z,11.50
2022-11-16T13:25:30.867Z,11.41
2022-11-16T13:28:47.651Z,11.39
2022-11-16T13:32:13.377Z,11.22
2022-11-16T13:35:18.304Z,11.28
2022-11-16T13:38:53.051Z,11.44
2022-11-16T13:42:12.316Z,11.58
2022-11-16T13:45:20.838Z,11.56
2022-11-16T13:48:35.562Z,11.39
2022-11-16T13:51:38.760Z,11.38
2022-11-16T13:54:46.427Z,11.41
2022-11-16T13:57:55.689Z,11.32
2022-11-16T14:01:16.152Z,11.40
2022-11-16T14:04:40.979Z,11.25
2022-11-16T14:07:50.017Z,11.05
2022-11-16T14:10:52.876Z,10.88
2022-11-16T14:13:55.825Z,10.84
2022-11-16T14:16:58.894Z,10.77
2022-11-16T14:20:02.596Z,10.67
2022-11-16T14:23:27.332Z,10.59
2022-11-16T14:26:57.382Z,10.53
2022-11-16T14:30:22.844Z,10.46
2022-11-16T14:33:31.764Z,10.42
2022-11-16T14:36:42.659Z,10.41
2022-11-16T14:39:45.479Z,10.38
2022-11-16T14:43:15.353Z,10.37
2022-11-16T14:46:34.853Z,10.48
2022-11-16T14:49:38.051Z,10.52
2022-11-16T14:52:47.601Z,10.60
2022-11-16T14:55:50.394Z,10.58
2022-11-16T14:58:57.036Z,10.48
2022-11-16T15:02:05.886Z,10.66
2022-11-16T15:05:16.900Z,10.79
2022-11-16T15:08:26.463Z,10.64
2022-11-16T15:12:04.315Z,10.54
2022-11-16T15:15:13.620Z,10.40
2022-11-16T15:18:22.102Z,10.39
2022-11-16T15:21:25.808Z,10.32
2022-11-16T15:24:34.182Z,10.31
2022-11-16T15:27:40.531Z,10.31
2022-11-16T15:30:46.931Z,10.34
2022-11-16T15:33:50.672Z,10.28
2022-11-16T15:36:53.348Z,10.25
2022-11-16T15:39:58.108Z,10.35
2022-11-16T15:43:04.041Z,10.28
2022-11-16T15:46:08.524Z,10.22
2022-11-16T15:49:30.594Z,10.23
2022-11-16T15:52:44.153Z,10.18
2022-11-16T15:55:50.227Z,10.12
2022-11-16T15:58:55.087Z,10.08
2022-11-16T16:01:58.225Z,10.05
2022-11-16T16:05:03.558Z,10.05
2022-11-16T16:08:23.566Z,10.02
2022-11-16T16:11:28.270Z,9.98
2022-11-16T16:14:31.835Z,10.02
2022-11-16T16:17:34.482Z,10.00
2022-11-16T16:20:37.951Z,10.03
2022-11-16T16:23:46.232Z,10.00
2022-11-16T16:26:49.049Z,10.07
2022-11-16T16:29:53.725Z,10.13
2022-11-16T16:32:57.034Z,10.19
2022-11-16T16:35:59.822Z,10.24
2022-11-16T16:39:03.170Z,10.27
2022-11-16T16:42:12.055Z,10.25
2022-11-16T16:45:22.328Z,10.29
2022-11-16T16:48:25.204Z,10.39
2022-11-16T16:51:28.375Z,10.41
2022-11-16T16:54:34.817Z,10.33
2022-11-16T16:57:40.781Z,10.24
2022-11-16T17:00:43.583Z,10.36
2022-11-16T17:03:47.386Z,10.50
2022-11-16T17:06:52.337Z,10.50
2022-11-16T17:09:55.095Z,10.51
2022-11-16T17:12:57.903Z,10.43
2022-11-16T17:16:04.689Z,10.41
2022-11-16T17:19:08.982Z,10.33
2022-11-16T17:22:12.378Z,10.38
2022-11-16T17:25:15.325Z,10.43
2022-11-16T17:28:18.133Z,10.50
2022-11-16T17:31:21.249Z,10.42
2022-11-16T17:34:24.130Z,10.40
2022-11-16T17:37:26.836Z,10.54
2022-11-16T17:40:29.938Z,10.46
2022-11-16T17:43:33.639Z,10.37
2022-11-16T17:46:37.161Z,10.43
2022-11-16T17:49:40.550Z,10.50
2022-11-16T17:52:43.344Z,10.43
2022-11-16T17:55:46.233Z,10.43
2022-11-16T17:58:52.659Z,10.49
2022-11-16T18:01:55.524Z,10.44
2022-11-16T18:04:58.405Z,10.42
2022-11-16T18:08:01.399Z,10.39
2022-11-16T18:11:09.938Z,10.43
2022-11-16T18:14:12.815Z,10.41
2022-11-16T18:17:15.591Z,10.43
2022-11-16T18:20:18.350Z,10.46
2022-11-16T18:23:21.417Z,10.48
2022-11-16T18:26:24.833Z,10.56
2022-11-16T18:29:27.805Z,10.52
2022-11-16T18:32:30.776Z,10.52
2022-11-16T18:35:33.785Z,10.55
2022-11-16T18:38:37.650Z,10.61
2022-11-16T18:41:50.160Z,10.54
2022-11-16T18:44:57.063Z,10.52
2022-11-16T18:47:59.988Z,10.55
2022-11-16T18:51:04.536Z,10.50
2022-11-16T18:54:08.646Z,10.56
2022-11-16T18:57:11.454Z,10.57
2022-11-16T19:00:15.406Z,10.59
2022-11-16T19:03:18.563Z,10.61
2022-11-16T19:06:22.638Z,10.65
2022-11-16T19:09:25.640Z,10.61
2022-11-16T19:12:28.910Z,10.57
2022-11-16T19:15:34.118Z,10.46
2022-11-16T19:18:38.475Z,10.41
2022-11-16T19:21:42.257Z,10.47
2022-11-16T19:24:45.311Z,10.50
2022-11-16T19:27:48.313Z,10.36
2022-11-16T19:30:51.396Z,10.28
2022-11-16T19:34:13.380Z,10.21
2022-11-16T19:37:17.062Z,10.18
2022-11-16T19:40:24.870Z,10.15
2022-11-16T19:43:28.299Z,10.17
2022-11-16T19:46:32.999Z,10.13
2022-11-16T19:49:36.303Z,10.07
2022-11-16T19:52:39.704Z,10.04
2022-11-16T19:55:44.256Z,10.11
2022-11-16T19:58:48.241Z,10.07
2022-11-16T20:01:51.367Z,10.07
2022-11-16T20:04:54.322Z,10.04
2022-11-16T20:07:57.033Z,9.96
2022-11-16T20:10:59.726Z,9.95
2022-11-16T20:14:04.884Z,9.95
2022-11-16T20:17:08.079Z,9.92
2022-11-16T20:20:11.348Z,9.85
2022-11-16T20:23:15.697Z,9.89
2022-11-16T20:26:20.579Z,9.88
2022-11-16T20:29:23.749Z,9.76
2022-11-16T20:32:27.489Z,9.83
2022-11-16T20:35:30.469Z,9.81
2022-11-16T20:38:34.681Z,9.81
2022-11-16T20:41:37.832Z,9.71
2022-11-16T20:44:40.858Z,9.69
2022-11-16T20:47:43.772Z,9.70
2022-11-16T20:50:51.835Z,9.72
2022-11-16T20:53:54.799Z,9.80
2022-11-16T20:56:57.513Z,9.70
2022-11-16T21:00:00.890Z,9.68
2022-11-16T21:03:03.835Z,9.72
2022-11-16T21:06:10.239Z,9.66
2022-11-16T21:09:15.673Z,9.77
2022-11-16T21:12:42.534Z,9.75
2022-11-16T21:15:54.485Z,9.77
2022-11-16T21:18:57.427Z,9.80
2022-11-16T21:22:00.277Z,9.76
2022-11-16T21:25:03.234Z,9.75
2022-11-16T21:28:05.944Z,9.70
2022-11-16T21:31:11.649Z,9.66
2022-11-16T21:34:14.367Z,9.63
2022-11-16T21:37:17.054Z,9.48
2022-11-16T21:40:19.856Z,9.56
2022-11-16T21:43:22.619Z,9.56
2022-11-16T21:46:26.773Z,9.60
2022-11-16T21:49:29.438Z,9.49
2022-11-16T21:52:32.060Z,9.39
2022-11-16T21:55:35.364Z,9.35
2022-11-16T21:58:39.320Z,9.35
2022-11-16T22:02:00.329Z,9.34
2022-11-16T22:05:21.755Z,9.27
2022-11-16T22:08:24.728Z,9.24
2022-11-16T22:11:27.536Z,9.26
2022-11-16T22:14:30.278Z,9.22
2022-11-16T22:17:33.485Z,9.11
2022-11-16T22:20:36.190Z,9.13
2022-11-16T22:23:39.216Z,9.20
2022-11-16T22:26:42.431Z,9.25
2022-11-16T22:29:45.108Z,9.16
2022-11-16T22:32:47.829Z,9.16
2022-11-16T22:35:50.504Z,9.20
2022-11-16T22:38:53.431Z,9.12
2022-11-16T22:41:56.197Z,9.07
2022-11-16T22:44:58.959Z,9.08
2022-11-16T22:48:01.604Z,9.08
2022-11-16T22:51:19.740Z,9.12
2022-11-16T22:54:28.331Z,9.06
2022-11-16T22:57:31.450Z,9.03
2022-11-16T23:00:40.560Z,8.94
2022-11-16T23:03:45.110Z,8.96
2022-11-16T23:06:47.878Z,8.91
2022-11-16T23:09:50.506Z,8.86
2022-11-16T23:13:12.236Z,8.78
2022-11-16T23:16:14.972Z,8.83
2022-11-16T23:19:38.428Z,8.85
2022-11-16T23:22:59.825Z,8.90
2022-11-16T23:26:24.347Z,8.97
2022-11-16T23:29:27.028Z,8.80
2022-11-16T23:32:30.858Z,8.83
2022-11-16T23:35:33.585Z,8.82
2022-11-16T23:38:36.426Z,8.78
2022-11-16T23:41:57.736Z,8.74
2022-11-16T23:45:00.556Z,8.78
2022-11-16T23:48:03.314Z,8.78
2022-11-16T23:51:06.224Z,8.78
2022-11-16T23:54:08.873Z,8.82
2022-11-16T23:57:11.718Z,8.74
